createdAt,value
2017-10-03T08:37:12.033Z,3.47
2017-10-03T08:39:39.490Z,3.90
2017-10-03T08:42:06.850Z,3.03
2017-10-03T08:44:34.236Z,3.80
2017-10-03T08:47:01.592Z,3.40
2017-10-03T08:49:28.983Z,3.80
2017-10-03T08:51:57.276Z,4.10
2017-10-03T08:54:24.635Z,4.20
2017-10-03T08:56:52.017Z,4.03
2017-10-03T08:59:19.401Z,6.60
2017-10-03T09:01:46.784Z,4.13
2017-10-03T09:04:14.312Z,4.10
2017-10-03T09:06:41.652Z,3.83
2017-10-03T09:09:09.060Z,4.13
2017-10-03T09:11:36.563Z,3.90
2017-10-03T09:14:03.927Z,3.60
2017-10-03T09:16:31.311Z,4.27
2017-10-03T09:18:58.698Z,3.80
2017-10-03T09:21:26.083Z,3.83
2017-10-03T09:23:53.487Z,4.60
2017-10-03T09:26:20.927Z,4.10
2017-10-03T09:28:48.304Z,3.20
2017-10-03T09:31:15.664Z,4.20
2017-10-03T09:33:43.016Z,3.53
2017-10-03T09:36:10.424Z,3.87
2017-10-03T09:38:37.766Z,3.40
2017-10-03T09:41:05.126Z,3.80
2017-10-03T09:43:32.788Z,3.53
2017-10-03T09:46:00.161Z,3.40
2017-10-03T09:48:27.540Z,3.10
2017-10-03T09:50:54.887Z,4.17
2017-10-03T09:53:22.276Z,2.77
2017-10-03T09:55:49.806Z,3.40
2017-10-03T09:58:17.258Z,3.10
2017-10-03T10:00:44.594Z,3.07
2017-10-03T10:03:11.971Z,3.43
2017-10-03T10:05:39.305Z,3.73
2017-10-03T10:08:07.720Z,3.90
2017-10-03T10:10:35.441Z,3.67
2017-10-03T10:13:02.816Z,4.17
2017-10-03T10:15:30.837Z,3.53
2017-10-03T10:17:58.185Z,3.50
2017-10-03T10:20:25.726Z,3.80
2017-10-03T10:22:53.580Z,4.07
2017-10-03T10:25:21.098Z,3.77
2017-10-03T10:27:48.601Z,3.93
2017-10-03T10:30:15.978Z,3.77
2017-10-03T10:32:43.372Z,3.10
2017-10-03T10:35:10.785Z,3.63
2017-10-03T10:37:38.138Z,3.10
2017-10-03T10:40:05.519Z,2.93
2017-10-03T10:42:32.901Z,3.27
2017-10-03T10:45:00.298Z,3.63
2017-10-03T10:47:27.676Z,2.92
2017-10-03T10:49:55.122Z,3.33
2017-10-03T10:52:22.496Z,2.80
2017-10-03T10:54:49.853Z,3.10
2017-10-03T10:57:17.238Z,3.50
2017-10-03T10:59:44.586Z,3.00
2017-10-03T11:02:11.982Z,3.13
2017-10-03T11:04:39.335Z,3.20
2017-10-03T11:07:06.805Z,3.23
2017-10-03T11:09:34.187Z,4.30
2017-10-03T11:12:01.602Z,3.00
2017-10-03T11:14:28.945Z,2.90
2017-10-03T11:16:56.297Z,3.50
2017-10-03T11:19:23.683Z,3.47
2017-10-03T11:21:51.065Z,3.47
2017-10-03T11:24:33.242Z,3.03
2017-10-03T11:27:00.600Z,3.37
2017-10-03T11:29:27.886Z,3.23
2017-10-03T11:31:55.281Z,3.57
2017-10-03T11:34:22.636Z,2.60
2017-10-03T11:36:49.996Z,3.53
2017-10-03T11:39:17.335Z,3.10
2017-10-03T11:41:44.705Z,2.97
2017-10-03T11:44:12.048Z,2.90
2017-10-03T11:46:39.440Z,3.40
2017-10-03T11:49:06.800Z,3.30
2017-10-03T11:51:34.155Z,3.30
2017-10-03T11:54:01.499Z,3.07
2017-10-03T11:56:28.868Z,3.13
2017-10-03T11:58:56.216Z,3.40
2017-10-03T12:01:23.570Z,2.77
2017-10-03T12:03:50.909Z,2.77
2017-10-03T12:06:18.296Z,3.17
2017-10-03T12:08:45.666Z,3.30
2017-10-03T12:11:13.132Z,3.13
2017-10-03T12:13:40.600Z,3.10
2017-10-03T12:16:07.979Z,3.03
2017-10-03T12:18:35.339Z,2.80
2017-10-03T12:21:02.702Z,3.17
2017-10-03T12:23:30.046Z,2.77
2017-10-03T12:25:57.427Z,2.40
2017-10-03T12:28:24.766Z,2.77
2017-10-03T12:30:52.127Z,2.70
2017-10-03T12:33:19.506Z,2.77
2017-10-03T12:35:46.884Z,2.83
2017-10-03T12:38:14.256Z,3.07
2017-10-03T12:40:41.589Z,2.70
2017-10-03T12:43:08.965Z,2.50
2017-10-03T12:45:36.336Z,2.53
2017-10-03T12:48:03.696Z,3.10
2017-10-03T12:50:31.022Z,2.90
2017-10-03T12:52:58.385Z,2.80
2017-10-03T12:55:25.749Z,2.70
2017-10-03T12:57:53.104Z,2.60
2017-10-03T13:00:20.483Z,2.70
2017-10-03T13:02:47.836Z,3.03
2017-10-03T13:05:15.209Z,2.93
2017-10-03T13:07:42.556Z,3.00
2017-10-03T13:10:09.942Z,2.93
2017-10-03T13:12:37.339Z,2.60
2017-10-03T13:15:04.718Z,3.20
2017-10-03T13:17:32.090Z,2.80
2017-10-03T13:19:59.485Z,2.93
2017-10-03T13:22:26.906Z,2.70
2017-10-03T13:24:54.264Z,3.00
2017-10-03T13:27:21.646Z,2.80
2017-10-03T13:29:49.100Z,3.47
2017-10-03T13:32:16.511Z,3.07
2017-10-03T13:34:43.933Z,2.70
2017-10-03T13:37:11.359Z,2.50
2017-10-03T13:39:38.736Z,2.70
2017-10-03T13:42:06.108Z,2.20
2017-10-03T13:44:33.476Z,2.73
2017-10-03T13:47:00.842Z,2.63
2017-10-03T13:49:28.234Z,2.30
2017-10-03T13:51:55.590Z,2.90
2017-10-03T13:54:22.989Z,2.73
2017-10-03T13:56:50.345Z,2.57
2017-10-03T13:59:17.699Z,2.30
2017-10-03T14:01:45.091Z,2.20
2017-10-03T14:04:12.453Z,2.73
2017-10-03T14:06:39.836Z,2.40
2017-10-03T14:09:07.195Z,3.27
2017-10-03T14:11:34.572Z,2.97
2017-10-03T14:14:01.951Z,2.60
2017-10-03T14:16:29.339Z,2.57
2017-10-03T14:18:56.776Z,2.60
2017-10-03T14:21:24.154Z,2.70
2017-10-03T14:23:51.574Z,2.97
2017-10-03T14:26:18.975Z,2.97
2017-10-03T14:28:46.401Z,2.43
2017-10-03T14:31:13.732Z,2.40
2017-10-03T14:33:41.103Z,2.80
2017-10-03T14:36:08.511Z,2.77
2017-10-03T14:38:35.886Z,2.60
2017-10-03T14:41:03.250Z,2.50
2017-10-03T14:43:30.594Z,2.40
2017-10-03T14:46:02.772Z,2.67
2017-10-03T14:48:30.145Z,2.77
2017-10-03T14:50:57.480Z,3.00
2017-10-03T14:53:24.860Z,2.37
2017-10-03T14:55:52.363Z,2.30
2017-10-03T14:58:19.780Z,2.60
2017-10-03T15:00:47.158Z,2.67
2017-10-03T15:03:14.598Z,2.50
2017-10-03T15:05:41.985Z,2.57
2017-10-03T15:08:09.337Z,2.47
2017-10-03T15:10:36.718Z,2.47
2017-10-03T15:13:04.070Z,2.43
2017-10-03T15:15:31.466Z,2.80
2017-10-03T15:17:58.850Z,2.20
2017-10-03T15:20:26.251Z,2.60
2017-10-03T15:22:53.845Z,2.40
2017-10-03T15:25:21.304Z,2.80
2017-10-03T15:27:48.674Z,2.80
2017-10-03T15:30:16.024Z,3.03
2017-10-03T15:32:43.417Z,2.00
2017-10-03T15:35:10.865Z,2.40
2017-10-03T15:37:38.296Z,3.20
2017-10-03T15:40:05.859Z,2.40
2017-10-03T15:42:33.573Z,3.30
2017-10-03T15:45:01.009Z,2.70
2017-10-03T15:47:28.515Z,2.57
2017-10-03T15:49:57.017Z,2.80
2017-10-03T15:52:24.455Z,2.80
2017-10-03T15:54:51.869Z,2.10
2017-10-03T15:57:19.420Z,2.57
2017-10-03T15:59:46.764Z,2.10
2017-10-03T16:02:14.124Z,2.80
2017-10-03T16:04:41.550Z,2.30
2017-10-03T16:07:08.972Z,2.60
2017-10-03T16:09:36.337Z,2.50
2017-10-03T16:12:03.863Z,2.53
2017-10-03T16:14:31.236Z,2.37
2017-10-03T16:16:58.680Z,2.60
2017-10-03T16:19:26.013Z,2.40
2017-10-03T16:21:53.360Z,2.87
2017-10-03T16:24:20.746Z,2.63
2017-10-03T16:26:48.154Z,2.43
2017-10-03T16:29:15.544Z,3.10
2017-10-03T16:31:42.889Z,2.80
2017-10-03T16:34:10.237Z,2.47
2017-10-03T16:36:37.606Z,2.77
2017-10-03T16:39:04.955Z,2.60
2017-10-03T16:41:32.402Z,2.67
2017-10-03T16:43:59.735Z,2.50
2017-10-03T16:46:27.082Z,2.50
2017-10-03T16:48:54.497Z,2.80
2017-10-03T16:51:21.870Z,2.60
2017-10-03T16:53:49.247Z,2.50
2017-10-03T16:56:16.633Z,2.53
2017-10-03T16:58:44.052Z,3.00
2017-10-03T17:01:11.400Z,2.97
2017-10-03T17:03:38.784Z,2.63
2017-10-03T17:06:06.148Z,2.63
2017-10-03T17:08:33.505Z,3.10
2017-10-03T17:11:00.883Z,2.57
2017-10-03T17:13:28.283Z,2.70
2017-10-03T17:15:55.668Z,3.00
2017-10-03T17:18:23.101Z,2.90
2017-10-03T17:20:50.511Z,3.33
2017-10-03T17:23:17.883Z,3.47
2017-10-03T17:25:45.344Z,3.30
2017-10-03T17:28:12.824Z,3.10
2017-10-03T17:30:40.187Z,3.50
2017-10-03T17:33:07.537Z,3.53
2017-10-03T17:35:35.123Z,3.70
2017-10-03T17:38:02.499Z,4.10
2017-10-03T17:40:29.863Z,3.70
2017-10-03T17:42:57.245Z,3.67
2017-10-03T17:45:24.619Z,3.80
2017-10-03T17:47:51.984Z,4.07
2017-10-03T17:50:19.361Z,4.63
2017-10-03T17:52:46.780Z,4.80
2017-10-03T17:55:14.125Z,3.70
2017-10-03T17:57:41.505Z,4.47
2017-10-03T18:00:08.890Z,4.30
2017-10-03T18:02:36.324Z,4.80
2017-10-03T18:05:03.876Z,7.00
2017-10-03T18:07:31.273Z,5.50
2017-10-03T18:09:58.652Z,5.43
2017-10-03T18:12:26.098Z,7.07
2017-10-03T18:14:53.605Z,7.80
2017-10-03T18:17:21.169Z,8.33
2017-10-03T18:19:48.939Z,6.40
2017-10-03T18:22:16.701Z,9.70
2017-10-03T18:24:44.574Z,10.30
2017-10-03T18:27:12.433Z,9.37
2017-10-03T18:29:40.218Z,7.10
2017-10-03T18:32:07.875Z,9.43
2017-10-03T18:34:35.524Z,9.57
2017-10-03T18:37:03.390Z,12.40
2017-10-03T18:39:31.064Z,9.30
2017-10-03T18:41:58.916Z,8.00
2017-10-03T18:44:26.791Z,8.80
2017-10-03T18:46:54.560Z,9.10
2017-10-03T18:49:22.314Z,6.97
2017-10-03T18:51:49.943Z,7.70
2017-10-03T18:54:17.625Z,7.53
2017-10-03T18:56:45.401Z,6.73
2017-10-03T18:59:13.163Z,6.63
2017-10-03T19:01:40.914Z,4.80
2017-10-03T19:04:08.899Z,5.97
2017-10-03T19:06:36.650Z,6.20
2017-10-03T19:09:04.543Z,6.87
2017-10-03T19:11:32.519Z,6.20
2017-10-03T19:14:00.542Z,6.90
2017-10-03T19:16:28.339Z,7.70
2017-10-03T19:18:56.320Z,5.97
2017-10-03T19:21:24.078Z,5.30
2017-10-03T19:23:51.755Z,5.80
2017-10-03T19:26:20.110Z,6.27
2017-10-03T19:28:48.489Z,5.80
2017-10-03T19:31:16.249Z,6.97
2017-10-03T19:33:44.016Z,7.43
2017-10-03T19:36:11.996Z,8.63
2017-10-03T19:38:39.858Z,9.20
2017-10-03T19:41:08.562Z,6.97
2017-10-03T19:43:36.507Z,7.50
2017-10-03T19:46:04.694Z,11.30
2017-10-03T19:48:32.661Z,9.97
2017-10-03T19:51:01.154Z,8.30
2017-10-03T19:53:28.911Z,6.70
2017-10-03T19:55:56.790Z,6.73
2017-10-03T19:58:24.660Z,7.60
2017-10-03T20:00:52.382Z,7.17
2017-10-03T20:03:20.708Z,6.90
2017-10-03T20:05:49.590Z,7.23
2017-10-03T20:08:17.057Z,6.53
2017-10-03T20:10:44.526Z,8.27
2017-10-03T20:13:12.021Z,7.60
2017-10-03T20:15:39.430Z,3.10
2017-10-03T20:18:06.781Z,2.90
2017-10-03T20:20:34.194Z,3.23
2017-10-03T20:23:02.486Z,3.90
2017-10-03T20:25:29.857Z,3.07
2017-10-03T20:27:57.354Z,3.00
2017-10-03T20:30:24.851Z,2.40
2017-10-03T20:32:52.215Z,2.40
2017-10-03T20:35:19.598Z,2.70
2017-10-03T20:37:47.096Z,3.10
2017-10-03T20:40:14.466Z,2.53
2017-10-03T20:42:41.816Z,2.80
2017-10-03T20:45:09.192Z,3.10
2017-10-03T20:47:36.605Z,2.60
2017-10-03T20:50:03.980Z,3.20
2017-10-03T20:52:31.505Z,3.10
2017-10-03T20:54:58.938Z,3.07
2017-10-03T20:57:26.456Z,2.73
2017-10-03T20:59:53.942Z,3.23
2017-10-03T21:02:21.302Z,2.80
2017-10-03T21:04:48.672Z,2.87
2017-10-03T21:07:16.034Z,3.00
2017-10-03T21:09:43.416Z,3.10
2017-10-03T21:12:10.771Z,2.63
2017-10-03T21:14:38.158Z,2.53
2017-10-03T21:17:05.504Z,2.33
2017-10-03T21:19:32.874Z,2.70
2017-10-03T21:22:00.244Z,3.47
2017-10-03T21:24:27.630Z,2.80
2017-10-03T21:26:54.968Z,2.50
2017-10-03T21:29:22.373Z,2.97
2017-10-03T21:31:49.948Z,2.17
2017-10-03T21:34:17.268Z,2.87
2017-10-03T21:36:44.638Z,2.60
2017-10-03T21:39:12.003Z,2.87
2017-10-03T21:41:45.293Z,2.57
2017-10-03T21:44:12.624Z,2.43
2017-10-03T21:46:39.947Z,2.43
2017-10-03T21:49:07.290Z,2.70
2017-10-03T21:51:34.620Z,2.37
2017-10-03T21:54:02.015Z,3.30
2017-10-03T21:56:29.344Z,2.67
2017-10-03T21:58:56.708Z,2.40
2017-10-03T22:01:24.077Z,2.37
2017-10-03T22:03:51.355Z,2.20
2017-10-03T22:06:18.737Z,2.70
2017-10-03T22:08:46.147Z,2.50
2017-10-03T22:11:13.625Z,2.50
2017-10-03T22:13:40.962Z,2.73
2017-10-03T22:16:08.329Z,2.67
2017-10-03T22:18:35.713Z,2.80
2017-10-03T22:21:03.053Z,2.10
2017-10-03T22:23:30.523Z,2.73
2017-10-03T22:25:57.811Z,2.60
2017-10-03T22:28:25.244Z,2.70
2017-10-03T22:30:52.583Z,2.50
2017-10-03T22:33:20.045Z,2.70
2017-10-03T22:35:47.385Z,2.40
2017-10-03T22:38:14.762Z,2.30
2017-10-03T22:40:42.139Z,2.60
2017-10-03T22:43:09.469Z,2.40
2017-10-03T22:45:36.809Z,2.30
2017-10-03T22:48:04.140Z,3.10
2017-10-03T22:50:31.574Z,2.73
2017-10-03T22:52:58.921Z,2.47
2017-10-03T22:55:26.627Z,2.27
2017-10-03T22:57:53.968Z,2.80
2017-10-03T23:00:21.307Z,2.60
2017-10-03T23:02:48.659Z,2.37
2017-10-03T23:05:16.020Z,2.90
2017-10-03T23:07:43.351Z,2.67
2017-10-03T23:10:10.696Z,2.50
2017-10-03T23:12:38.045Z,2.50
2017-10-03T23:15:05.372Z,2.40
2017-10-03T23:17:32.732Z,2.63
2017-10-03T23:20:00.063Z,2.90
2017-10-03T23:22:27.539Z,2.47
2017-10-03T23:24:54.887Z,2.30
2017-10-03T23:27:22.224Z,2.47
2017-10-03T23:29:49.579Z,2.47
2017-10-03T23:32:17.041Z,2.10
2017-10-03T23:34:44.330Z,2.60
2017-10-03T23:37:11.681Z,2.07
2017-10-03T23:39:39.005Z,2.60
2017-10-03T23:42:06.357Z,2.47
2017-10-03T23:44:33.669Z,2.40
2017-10-03T23:47:01.020Z,2.40
2017-10-03T23:49:28.376Z,2.40
2017-10-03T23:51:55.719Z,2.30
2017-10-03T23:54:23.089Z,2.50
2017-10-03T23:56:50.472Z,2.20
2017-10-03T23:59:17.978Z,2.43
